Hammonia Bavaria — A8QT7 — position and weather

sailwx.info

Track history (hours):
 
Tides and Currents Weather Stations Pressure Air Temp Water Temp Dewpoint Dewpoint Depression Visibility Wind Speed Wind Dir Waves Ship Positions

Hammonia Bavaria

Last reported at 2015-Jan-28 18:29 UTC. Time now 2015-Mar-06 16:07 UTC.
Position N 09°35' W 016°32'.
Warning: this ship's position is 36 days out of date.

Length 209 m; draft 9.2 m.

Type: Ship (hazmat cat D). MMSI: 636091641.

Date/timePositionNaut miles runAvg speedWind from/ knotsBaromVisibWave heightAir tempDewpointWater temp
2015-Jan-28 18:29N 09°35' W 016°32'9 9.1
2015-Jan-28 17:29N 09°41' W 016°39'10 8.9
2015-Jan-28 16:18N 09°47' W 016°48'10 9.1
2015-Jan-28 15:11N 09°53' W 016°56'  
2015-Jan-20 22:22N 35°57' W 005°35'6 7.4
2015-Jan-20 21:33N 35°59' W 005°27'7 7.0
2015-Jan-20 20:33N 36°05' W 005°23'4 3.3
2015-Jan-20 19:15N 36°09' W 005°26'0 0.0
2015-Jan-20 18:27N 36°09' W 005°26'0 0.0
2015-Jan-20 17:09N 36°09' W 005°26'0 0.0
2015-Jan-20 15:21N 36°09' W 005°26'0 0.0
2015-Jan-20 11:24N 36°09' W 005°26'0 0.0
2015-Jan-20 10:30N 36°09' W 005°26'0 0.0
2015-Jan-20 02:22N 36°09' W 005°26'2 2.4
2015-Jan-20 01:31N 36°07' W 005°24'0 0.0
2015-Jan-20 00:33N 36°07' W 005°24'0 0.1
2015-Jan-19 21:30N 36°07' W 005°24'0 0.0
2015-Jan-19 20:30N 36°07' W 005°24'0 0.0
2015-Jan-19 19:33N 36°07' W 005°24'0 0.0
2015-Jan-19 18:33N 36°07' W 005°24'0 0.0
2015-Jan-19 17:27N 36°07' W 005°24'0 0.0
2015-Jan-19 16:27N 36°07' W 005°24'  
Track history (hours):
 
Tides and Currents Weather Stations Pressure Air Temp Water Temp Dewpoint Dewpoint Depression Visibility Wind Speed Wind Dir Waves Ship Positions

Hammonia Bavaria

Last reported at 2015-Jan-28 18:29 UTC. Time now 2015-Mar-06 16:07 UTC.
Position N 09°35' W 016°32'.
Warning: this ship's position is 36 days out of date.

Length 209 m; draft 9.2 m.

Type: Ship (hazmat cat D). MMSI: 636091641.

Date/timePositionNaut miles runAvg speedWind from/ knotsBaromVisibWave heightAir tempDewpointWater temp
2015-Jan-28 18:29N 09°35' W 016°32'9 9.1
2015-Jan-28 17:29N 09°41' W 016°39'10 8.9
2015-Jan-28 16:18N 09°47' W 016°48'10 9.1
2015-Jan-28 15:11N 09°53' W 016°56'  
2015-Jan-20 22:22N 35°57' W 005°35'6 7.4
2015-Jan-20 21:33N 35°59' W 005°27'7 7.0
2015-Jan-20 20:33N 36°05' W 005°23'4 3.3
2015-Jan-20 19:15N 36°09' W 005°26'0 0.0
2015-Jan-20 18:27N 36°09' W 005°26'0 0.0
2015-Jan-20 17:09N 36°09' W 005°26'0 0.0
2015-Jan-20 15:21N 36°09' W 005°26'0 0.0
2015-Jan-20 11:24N 36°09' W 005°26'0 0.0
2015-Jan-20 10:30N 36°09' W 005°26'0 0.0
2015-Jan-20 02:22N 36°09' W 005°26'2 2.4
2015-Jan-20 01:31N 36°07' W 005°24'0 0.0
2015-Jan-20 00:33N 36°07' W 005°24'0 0.1
2015-Jan-19 21:30N 36°07' W 005°24'0 0.0
2015-Jan-19 20:30N 36°07' W 005°24'0 0.0
2015-Jan-19 19:33N 36°07' W 005°24'0 0.0
2015-Jan-19 18:33N 36°07' W 005°24'0 0.0
2015-Jan-19 17:27N 36°07' W 005°24'0 0.0
2015-Jan-19 16:27N 36°07' W 005°24'  

Dump ship's entire track history